• Join FlightAware (Why Join?)
  • Login
  • US Flag 
09:14PM EST


 

Airport Tracker/Info


-or-


 

Live Flight TrackerFlight Track Log ✈ SWA3313 ✈ 23-Apr-2013 ✈ KBWI - KCLT

Flight Track Log - Related Links

Times and Time Zones

All times are in EDT time to prevent confusion due to time zone crossing. See the SWA3313 flight status page for this flight to view local times or setup timezone preferences in your user account.

Time Position Orientation Groundspeed Altitude Reporting Facility
EDT Latitude Longitude Course Direction KTS MPH feet Rate Location/Type
10:18PM 39.1500 -76.6500 288° West 171 197 1,600  Level Potomac TRACON
10:19PM 39.1667 -76.7167 288° West 247 284 4,000 2,800 Climbing Potomac TRACON
10:20PM 39.2000 -76.8000 297° West 254 292 7,200 3,600 Climbing Potomac TRACON
10:21PM 39.2000 -76.9000 270° West 275 316 11,200 3,372 Climbing Potomac TRACON
10:22PM 39.2167 -77.0000 282° West 311 358 14,000 2,693 Climbing Potomac TRACON
10:23PM 39.2000 -77.1333 261° West 376 433 16,900 2,829 Climbing Potomac TRACON
10:25PM 39.0219 -77.3231 220° Southwest 413 475 23,100 2,952 Climbing Washington Center
10:26PM 38.9289 -77.4008 213° Southwest 413 475 26,100 1,950 Climbing Washington Center
10:27PM 38.8361 -77.4758 212° Southwest 408 470 27,000 1,250 Climbing Washington Center
10:28PM 38.7367 -77.5583 213° Southwest 408 470 28,600 1,500 Climbing Washington Center
10:29PM 38.6564 -77.6256 213° Southwest 427 491 30,000 1,650 Climbing Washington Center
10:30PM 38.5525 -77.7314 219° Southwest 438 504 31,900 2,000 Climbing Washington Center
10:31PM 38.4650 -77.8403 224° Southwest 438 504 34,000 1,900 Climbing Washington Center
10:32PM 38.3775 -77.9436 223° Southwest 438 504 35,700 1,550 Climbing Washington Center
10:33PM 38.2878 -78.0467 222° Southwest 433 498 37,100 1,550 Climbing Washington Center
10:34PM 38.2003 -78.1519 223° Southwest 433 498 38,800 1,450 Climbing Washington Center
10:35PM 38.1147 -78.2519 223° Southwest 433 498 40,000 600 Climbing Washington Center
10:36PM 38.0269 -78.3517 222° Southwest 433 498 40,000  Level Washington Center
10:37PM 37.9308 -78.4483 218° Southwest 416 479 40,000  Level Washington Center
10:38PM 37.8367 -78.5394 217° Southwest 421 484 40,000  Level Washington Center
10:39PM 37.7447 -78.6303 218° Southwest 427 491 40,000  Level Washington Center
10:40PM 37.6592 -78.7136 218° Southwest 427 491 40,000  Level Washington Center
10:41PM 37.5672 -78.8042 218° Southwest 427 491 40,000  Level Washington Center
10:42PM 37.4750 -78.8917 217° Southwest 427 491 40,000  Level Washington Center
10:43PM 37.3828 -78.9819 218° Southwest 427 491 40,000  Level Washington Center
10:44PM 37.2778 -79.0842 218° Southwest 427 491 40,000 -500 Level Washington Center
10:45PM 37.1833 -79.1739 217° Southwest 427 491 39,000 -950 Descending Washington Center
10:46PM 37.0864 -79.2681 218° Southwest 433 498 38,100 -900 Descending Washington Center
10:47PM 36.9919 -79.3597 218° Southwest 433 498 37,200 -950 Descending Washington Center
10:48PM 36.8969 -79.4539 218° Southwest 433 498 36,200 -950 Descending Washington Center
10:49PM 36.8022 -79.5425 217° Southwest 433 498 35,300 -1,150 Descending Washington Center
10:50PM 36.7183 -79.6239 218° Southwest 433 498 33,900 -1,450 Descending Washington Center
10:51PM 36.6233 -79.7147 218° Southwest 433 498 32,400 -1,650 Descending Washington Center
10:51PM 36.5819 -79.7497 214° Southwest 432 497 31,700 -2,400 Descending Atlanta Center
10:52PM 36.4911 -79.8400 219° Southwest 432 497 29,200 -4,850 Descending Atlanta Center
10:53PM 36.4022 -79.9244 217° Southwest 438 504 22,000 -3,600 Descending Atlanta Center
10:54PM 36.3031 -80.0144 216° Southwest 445 512 22,000  Level Atlanta Center
10:55PM 36.2036 -80.0967 214° Southwest 445 512 22,000 -1,000 Level Atlanta Center
10:56PM 36.1142 -80.1731 215° Southwest 423 487 20,000 -2,350 Descending Atlanta Center
10:57PM 36.0208 -80.2572 216° Southwest 398 458 17,300 -2,549 Descending Atlanta Center
10:58PM 35.9478 -80.3222 216° Southwest 375 432 15,200 -2,198 Descending Atlanta Center
10:59PM 35.8744 -80.3844 215° Southwest 365 420 13,600 -1,701 Descending Atlanta Center
10:59PM 35.8519 -80.4008 211° Southwest 379 436 13,300 -911 Descending Atlanta Center
11:00PM 35.7828 -80.4600 215° Southwest 335 386 12,400 -950 Descending Atlanta Center
11:01PM 35.7136 -80.5169 214° Southwest 309 356 11,400 -1,165 Descending Atlanta Center
11:02PM 35.6686 -80.5522 212° Southwest 289 333 10,400 -1,500 Descending Atlanta Center
11:02PM 35.6442 -80.5683 208° Southwest 297 342 9,900 -1,527 Descending Atlanta Center
11:03PM 35.6033 -80.5958 209° Southwest 291 335 9,000 -1,500 Descending Atlanta Center
11:03PM 35.5744 -80.6147 208° Southwest 285 328 8,400 -1,390 Descending Atlanta Center
11:04PM 35.5153 -80.6556 209° Southwest 285 328 7,100 -1,543 Descending Atlanta Center
11:05PM 35.4600 -80.6961 211° Southwest 275 316 5,700 -1,600 Descending Atlanta Center
11:05PM 35.4475 -80.7042 208° Southwest 285 328 5,500 -1,164 Descending Atlanta Center
11:06PM 35.3861 -80.7450 208° Southwest 268 308 4,400 -1,233 Descending Atlanta Center
11:07PM 35.3644 -80.7578 206° Southwest 257 296 4,000 -600 Descending FAA TRACON SMA TRACON (SMA)
11:07PM 35.3456 -80.7706 209° Southwest 252 290 4,000 -150 Level FAA TRACON SMA TRACON (SMA)
11:07PM 35.3292 -80.7847 215° Southwest 234 269 3,900 -732 Descending FAA TRACON SMA TRACON (SMA)
11:08PM 35.3133 -80.8064 228° Southwest 218 251 3,500 -1,200 Descending FAA TRACON SMA TRACON (SMA)
11:08PM 35.3014 -80.8233 229° Southwest 211 243 3,100 -1,050 Descending FAA TRACON SMA TRACON (SMA)
11:08PM 35.2894 -80.8392 227° Southwest 201 231 2,800 -1,171 Descending FAA TRACON SMA TRACON (SMA)
11:09PM 35.2758 -80.8581 229° Southwest 191 220 2,300 -1,200 Descending FAA TRACON SMA TRACON (SMA)
11:09PM 35.2658 -80.8717 228° Southwest 174 200 2,000 -769 Descending FAA TRACON SMA TRACON (SMA)
11:09PM 35.2567 -80.8844 229° Southwest 157 181 1,800 -750 Descending FAA TRACON SMA TRACON (SMA)
11:10PM 35.2464 -80.8981 227° Southwest 137 158 1,500 -750 Descending FAA TRACON SMA TRACON (SMA)
11:10PM 35.2392 -80.9083 229° Southwest 130 150 1,300 -615 Descending FAA TRACON SMA TRACON (SMA)
11:10PM 35.2322 -80.9183 230° Southwest 129 148 1,100 -750 Descending FAA TRACON SMA TRACON (SMA)
11:11PM 35.2244 -80.9283 226° Southwest 133 153 800 -439 Descending FAA TRACON SMA TRACON (SMA)
11:11PM 35.2244 -80.9283 328° Northwest 133 153 800  Level FAA TRACON SMA TRACON (SMA)
11:13PM 35.2137 -80.9491 176° South  Level Estimated